sensor_id;sensor_type;location;lat;lon;timestamp;temperature;humidity
45012;DHT22;63444;48.148;11.542;2023-11-21T00:01:54;9.10;99.90
45012;DHT22;63444;48.148;11.542;2023-11-21T00:04:20;9.10;99.90
45012;DHT22;63444;48.148;11.542;2023-11-21T00:06:46;9.20;99.90
45012;DHT22;63444;48.148;11.542;2023-11-21T00:09:13;9.00;99.90
45012;DHT22;63444;48.148;11.542;2023-11-21T00:11:41;9.10;99.90
45012;DHT22;63444;48.148;11.542;2023-11-21T00:14:06;9.00;99.90
45012;DHT22;63444;48.148;11.542;2023-11-21T00:16:33;9.10;99.90
45012;DHT22;63444;48.148;11.542;2023-11-21T00:18:59;9.00;99.90
45012;DHT22;63444;48.148;11.542;2023-11-21T00:21:25;9.00;99.90
45012;DHT22;63444;48.148;11.542;2023-11-21T00:23:50;8.90;99.90
45012;DHT22;63444;48.148;11.542;2023-11-21T00:26:16;8.90;99.90
45012;DHT22;63444;48.148;11.542;2023-11-21T00:28:42;8.80;99.90
45012;DHT22;63444;48.148;11.542;2023-11-21T00:31:07;8.80;99.90
45012;DHT22;63444;48.148;11.542;2023-11-21T00:33:33;8.80;99.90
45012;DHT22;63444;48.148;11.542;2023-11-21T00:35:59;8.70;99.90
45012;DHT22;63444;48.148;11.542;2023-11-21T00:38:26;8.70;99.90
45012;DHT22;63444;48.148;11.542;2023-11-21T00:40:52;8.70;99.90
45012;DHT22;63444;48.148;11.542;2023-11-21T00:43:22;8.70;99.90
45012;DHT22;63444;48.148;11.542;2023-11-21T00:45:48;8.80;99.90
45012;DHT22;63444;48.148;11.542;2023-11-21T00:48:14;8.90;99.90
45012;DHT22;63444;48.148;11.542;2023-11-21T00:50:40;8.90;99.90
45012;DHT22;63444;48.148;11.542;2023-11-21T00:53:06;8.90;99.90
45012;DHT22;63444;48.148;11.542;2023-11-21T00:55:33;9.00;99.90
45012;DHT22;63444;48.148;11.542;2023-11-21T00:57:59;9.00;99.90
45012;DHT22;63444;48.148;11.542;2023-11-21T01:00:25;9.00;99.90
45012;DHT22;63444;48.148;11.542;2023-11-21T01:02:51;9.10;99.90
45012;DHT22;63444;48.148;11.542;2023-11-21T01:05:16;9.10;99.90
45012;DHT22;63444;48.148;11.542;2023-11-21T01:07:42;9.10;99.90
45012;DHT22;63444;48.148;11.542;2023-11-21T01:10:08;9.10;99.90
45012;DHT22;63444;48.148;11.542;2023-11-21T01:12:36;9.10;99.90
45012;DHT22;63444;48.148;11.542;2023-11-21T01:15:03;9.10;99.90
45012;DHT22;63444;48.148;11.542;2023-11-21T01:17:29;9.10;99.90
45012;DHT22;63444;48.148;11.542;2023-11-21T01:19:55;9.10;99.90
45012;DHT22;63444;48.148;11.542;2023-11-21T01:22:21;9.10;99.90
45012;DHT22;63444;48.148;11.542;2023-11-21T01:24:51;9.10;99.90
45012;DHT22;63444;48.148;11.542;2023-11-21T01:27:17;9.10;99.90
45012;DHT22;63444;48.148;11.542;2023-11-21T01:29:44;9.10;99.90
45012;DHT22;63444;48.148;11.542;2023-11-21T01:32:10;9.10;99.90
45012;DHT22;63444;48.148;11.542;2023-11-21T01:34:36;9.10;99.90
45012;DHT22;63444;48.148;11.542;2023-11-21T01:37:01;9.10;99.90
45012;DHT22;63444;48.148;11.542;2023-11-21T01:39:30;9.10;99.90
45012;DHT22;63444;48.148;11.542;2023-11-21T01:41:56;9.10;99.90
45012;DHT22;63444;48.148;11.542;2023-11-21T01:44:24;9.10;99.90
45012;DHT22;63444;48.148;11.542;2023-11-21T01:46:50;9.10;99.90
45012;DHT22;63444;48.148;11.542;2023-11-21T01:49:17;9.10;99.90
45012;DHT22;63444;48.148;11.542;2023-11-21T01:51:45;9.10;99.90
45012;DHT22;63444;48.148;11.542;2023-11-21T01:54:12;9.20;99.90
45012;DHT22;63444;48.148;11.542;2023-11-21T01:56:38;9.10;99.90
45012;DHT22;63444;48.148;11.542;2023-11-21T01:59:05;9.10;99.90
45012;DHT22;63444;48.148;11.542;2023-11-21T02:01:33;9.10;99.90
45012;DHT22;63444;48.148;11.542;2023-11-21T02:03:58;9.10;99.90
45012;DHT22;63444;48.148;11.542;2023-11-21T02:06:24;9.00;99.90
45012;DHT22;63444;48.148;11.542;2023-11-21T02:08:51;9.00;99.90
45012;DHT22;63444;48.148;11.542;2023-11-21T02:11:17;9.00;99.90
45012;DHT22;63444;48.148;11.542;2023-11-21T02:13:42;9.10;99.90
45012;DHT22;63444;48.148;11.542;2023-11-21T02:16:12;9.10;99.90
45012;DHT22;63444;48.148;11.542;2023-11-21T02:18:39;9.10;99.90
45012;DHT22;63444;48.148;11.542;2023-11-21T02:21:05;9.00;99.90
45012;DHT22;63444;48.148;11.542;2023-11-21T02:23:31;9.00;99.90
45012;DHT22;63444;48.148;11.542;2023-11-21T02:25:56;9.00;99.90
45012;DHT22;63444;48.148;11.542;2023-11-21T02:28:22;9.00;99.90
45012;DHT22;63444;48.148;11.542;2023-11-21T02:30:51;8.90;99.90
45012;DHT22;63444;48.148;11.542;2023-11-21T02:33:21;8.80;99.90
45012;DHT22;63444;48.148;11.542;2023-11-21T02:35:47;8.80;99.90
45012;DHT22;63444;48.148;11.542;2023-11-21T02:38:13;8.80;99.90
45012;DHT22;63444;48.148;11.542;2023-11-21T02:40:39;8.80;99.90
45012;DHT22;63444;48.148;11.542;2023-11-21T02:43:05;8.70;99.90
45012;DHT22;63444;48.148;11.542;2023-11-21T02:45:31;8.70;99.90
45012;DHT22;63444;48.148;11.542;2023-11-21T02:47:57;8.70;99.90
45012;DHT22;63444;48.148;11.542;2023-11-21T02:50:24;8.60;99.90
45012;DHT22;63444;48.148;11.542;2023-11-21T02:52:49;8.70;99.90
45012;DHT22;63444;48.148;11.542;2023-11-21T02:55:15;8.70;99.90
45012;DHT22;63444;48.148;11.542;2023-11-21T02:57:41;8.70;99.90
45012;DHT22;63444;48.148;11.542;2023-11-21T03:00:07;8.80;99.90
45012;DHT22;63444;48.148;11.542;2023-11-21T03:02:33;8.80;99.90
45012;DHT22;63444;48.148;11.542;2023-11-21T03:05:02;8.80;99.90
45012;DHT22;63444;48.148;11.542;2023-11-21T03:07:27;8.80;99.90
45012;DHT22;63444;48.148;11.542;2023-11-21T03:09:53;8.80;99.90
45012;DHT22;63444;48.148;11.542;2023-11-21T03:12:19;8.80;99.90
45012;DHT22;63444;48.148;11.542;2023-11-21T03:14:45;8.80;99.90
45012;DHT22;63444;48.148;11.542;2023-11-21T03:17:10;8.80;99.90
45012;DHT22;63444;48.148;11.542;2023-11-21T03:19:37;8.80;99.90
45012;DHT22;63444;48.148;11.542;2023-11-21T03:22:02;8.80;99.90
45012;DHT22;63444;48.148;11.542;2023-11-21T03:24:29;8.70;99.90
45012;DHT22;63444;48.148;11.542;2023-11-21T03:26:55;8.70;99.90
45012;DHT22;63444;48.148;11.542;2023-11-21T03:29:20;8.70;99.90
45012;DHT22;63444;48.148;11.542;2023-11-21T03:31:46;8.70;99.90
45012;DHT22;63444;48.148;11.542;2023-11-21T03:34:20;8.70;99.90
45012;DHT22;63444;48.148;11.542;2023-11-21T03:36:45;8.70;99.90
45012;DHT22;63444;48.148;11.542;2023-11-21T03:39:12;8.60;99.90
45012;DHT22;63444;48.148;11.542;2023-11-21T03:41:38;8.60;99.90
45012;DHT22;63444;48.148;11.542;2023-11-21T03:44:04;8.60;99.90
45012;DHT22;63444;48.148;11.542;2023-11-21T03:46:30;8.60;99.90
45012;DHT22;63444;48.148;11.542;2023-11-21T03:48:55;8.60;99.90
45012;DHT22;63444;48.148;11.542;2023-11-21T03:51:21;8.60;99.90
45012;DHT22;63444;48.148;11.542;2023-11-21T03:53:47;8.60;99.90
45012;DHT22;63444;48.148;11.542;2023-11-21T03:56:13;8.70;99.90
45012;DHT22;63444;48.148;11.542;2023-11-21T03:58:39;8.60;99.90
45012;DHT22;63444;48.148;11.542;2023-11-21T04:01:05;8.60;99.90
45012;DHT22;63444;48.148;11.542;2023-11-21T04:03:31;8.60;99.90
45012;DHT22;63444;48.148;11.542;2023-11-21T04:05:56;8.60;99.90
45012;DHT22;63444;48.148;11.542;2023-11-21T04:08:22;8.60;99.90
45012;DHT22;63444;48.148;11.542;2023-11-21T04:10:48;8.60;99.90
45012;DHT22;63444;48.148;11.542;2023-11-21T04:13:14;8.60;99.90
45012;DHT22;63444;48.148;11.542;2023-11-21T04:15:39;8.60;99.90
45012;DHT22;63444;48.148;11.542;2023-11-21T04:18:05;8.60;99.90
45012;DHT22;63444;48.148;11.542;2023-11-21T04:20:31;8.60;99.90
45012;DHT22;63444;48.148;11.542;2023-11-21T04:22:56;8.60;99.90
45012;DHT22;63444;48.148;11.542;2023-11-21T04:25:22;8.60;99.90
45012;DHT22;63444;48.148;11.542;2023-11-21T04:27:48;8.60;99.90
45012;DHT22;63444;48.148;11.542;2023-11-21T04:30:15;8.60;99.90
45012;DHT22;63444;48.148;11.542;2023-11-21T04:32:40;8.50;99.90
45012;DHT22;63444;48.148;11.542;2023-11-21T04:35:07;8.40;99.90
45012;DHT22;63444;48.148;11.542;2023-11-21T04:37:34;8.50;99.90
45012;DHT22;63444;48.148;11.542;2023-11-21T04:39:59;8.50;99.90
45012;DHT22;63444;48.148;11.542;2023-11-21T04:42:25;8.40;99.90
45012;DHT22;63444;48.148;11.542;2023-11-21T04:44:50;8.40;99.90
45012;DHT22;63444;48.148;11.542;2023-11-21T04:47:18;8.40;99.90
45012;DHT22;63444;48.148;11.542;2023-11-21T04:49:46;8.40;99.90
45012;DHT22;63444;48.148;11.542;2023-11-21T04:52:14;8.40;99.90
45012;DHT22;63444;48.148;11.542;2023-11-21T04:54:40;8.40;99.90
45012;DHT22;63444;48.148;11.542;2023-11-21T04:57:05;8.40;99.90
45012;DHT22;63444;48.148;11.542;2023-11-21T04:59:33;8.40;99.90
45012;DHT22;63444;48.148;11.542;2023-11-21T05:01:59;8.40;99.90
45012;DHT22;63444;48.148;11.542;2023-11-21T05:04:25;8.50;99.90
45012;DHT22;63444;48.148;11.542;2023-11-21T05:06:51;8.40;99.90
45012;DHT22;63444;48.148;11.542;2023-11-21T05:09:16;8.50;99.90
45012;DHT22;63444;48.148;11.542;2023-11-21T05:11:43;8.50;99.90
45012;DHT22;63444;48.148;11.542;2023-11-21T05:14:09;8.50;99.90
45012;DHT22;63444;48.148;11.542;2023-11-21T05:16:34;8.50;99.90
45012;DHT22;63444;48.148;11.542;2023-11-21T05:19:00;8.60;99.90
45012;DHT22;63444;48.148;11.542;2023-11-21T05:21:27;8.50;99.90
45012;DHT22;63444;48.148;11.542;2023-11-21T05:23:53;8.50;99.90
45012;DHT22;63444;48.148;11.542;2023-11-21T05:26:18;8.50;99.90
45012;DHT22;63444;48.148;11.542;2023-11-21T05:28:44;8.50;99.90
45012;DHT22;63444;48.148;11.542;2023-11-21T05:31:09;8.50;99.90
45012;DHT22;63444;48.148;11.542;2023-11-21T05:33:36;8.50;99.90
45012;DHT22;63444;48.148;11.542;2023-11-21T05:36:02;8.50;99.90
45012;DHT22;63444;48.148;11.542;2023-11-21T05:38:27;8.40;99.90
45012;DHT22;63444;48.148;11.542;2023-11-21T05:40:53;8.50;99.90
45012;DHT22;63444;48.148;11.542;2023-11-21T05:43:19;8.50;99.90
45012;DHT22;63444;48.148;11.542;2023-11-21T05:45:45;8.50;99.90
45012;DHT22;63444;48.148;11.542;2023-11-21T05:48:11;8.50;99.90
45012;DHT22;63444;48.148;11.542;2023-11-21T05:50:36;8.50;99.90
45012;DHT22;63444;48.148;11.542;2023-11-21T05:53:03;8.40;99.90
45012;DHT22;63444;48.148;11.542;2023-11-21T05:55:29;8.50;99.90
45012;DHT22;63444;48.148;11.542;2023-11-21T05:57:54;8.50;99.90
45012;DHT22;63444;48.148;11.542;2023-11-21T06:00:20;8.50;99.90
45012;DHT22;63444;48.148;11.542;2023-11-21T06:02:53;8.50;99.90
45012;DHT22;63444;48.148;11.542;2023-11-21T06:05:23;8.50;99.90
45012;DHT22;63444;48.148;11.542;2023-11-21T06:07:52;8.50;99.90
45012;DHT22;63444;48.148;11.542;2023-11-21T06:10:20;8.50;99.90
45012;DHT22;63444;48.148;11.542;2023-11-21T06:12:46;8.40;99.90
45012;DHT22;63444;48.148;11.542;2023-11-21T06:15:12;8.40;99.90
45012;DHT22;63444;48.148;11.542;2023-11-21T06:17:41;8.30;99.90
45012;DHT22;63444;48.148;11.542;2023-11-21T06:20:09;8.40;99.90
45012;DHT22;63444;48.148;11.542;2023-11-21T06:22:40;8.30;99.90
45012;DHT22;63444;48.148;11.542;2023-11-21T06:25:06;8.40;99.90
45012;DHT22;63444;48.148;11.542;2023-11-21T06:27:37;8.40;99.90
45012;DHT22;63444;48.148;11.542;2023-11-21T06:30:03;8.40;99.90
45012;DHT22;63444;48.148;11.542;2023-11-21T06:32:29;8.40;99.90
45012;DHT22;63444;48.148;11.542;2023-11-21T06:34:58;8.40;99.90
45012;DHT22;63444;48.148;11.542;2023-11-21T06:37:29;8.40;99.90
45012;DHT22;63444;48.148;11.542;2023-11-21T06:39:55;8.40;99.90
45012;DHT22;63444;48.148;11.542;2023-11-21T06:42:22;8.40;99.90
45012;DHT22;63444;48.148;11.542;2023-11-21T06:44:49;8.40;99.90
45012;DHT22;63444;48.148;11.542;2023-11-21T06:47:17;8.40;99.90
45012;DHT22;63444;48.148;11.542;2023-11-21T06:49:43;8.40;99.90
45012;DHT22;63444;48.148;11.542;2023-11-21T06:52:09;8.50;99.90
45012;DHT22;63444;48.148;11.542;2023-11-21T06:54:35;8.50;99.90
45012;DHT22;63444;48.148;11.542;2023-11-21T06:57:02;8.50;99.90
45012;DHT22;63444;48.148;11.542;2023-11-21T06:59:31;8.50;99.90
45012;DHT22;63444;48.148;11.542;2023-11-21T07:01:57;8.60;99.90
45012;DHT22;63444;48.148;11.542;2023-11-21T07:04:22;8.50;99.90
45012;DHT22;63444;48.148;11.542;2023-11-21T07:06:48;8.60;99.90
45012;DHT22;63444;48.148;11.542;2023-11-21T07:09:13;8.50;99.90
45012;DHT22;63444;48.148;11.542;2023-11-21T07:11:39;8.50;99.90
45012;DHT22;63444;48.148;11.542;2023-11-21T07:14:05;8.50;99.90
45012;DHT22;63444;48.148;11.542;2023-11-21T07:16:37;8.50;99.90
45012;DHT22;63444;48.148;11.542;2023-11-21T07:19:06;8.50;99.90
45012;DHT22;63444;48.148;11.542;2023-11-21T07:21:35;8.50;99.90
45012;DHT22;63444;48.148;11.542;2023-11-21T07:24:02;8.50;99.90
45012;DHT22;63444;48.148;11.542;2023-11-21T07:26:28;8.50;99.90
45012;DHT22;63444;48.148;11.542;2023-11-21T07:28:54;8.50;99.90
45012;DHT22;63444;48.148;11.542;2023-11-21T07:31:21;8.50;99.90
45012;DHT22;63444;48.148;11.542;2023-11-21T07:33:48;8.50;99.90
45012;DHT22;63444;48.148;11.542;2023-11-21T07:36:15;8.50;99.90
45012;DHT22;63444;48.148;11.542;2023-11-21T07:38:41;8.50;99.90
45012;DHT22;63444;48.148;11.542;2023-11-21T07:41:07;8.50;99.90
45012;DHT22;63444;48.148;11.542;2023-11-21T07:43:37;8.50;99.90
45012;DHT22;63444;48.148;11.542;2023-11-21T07:46:03;8.60;99.90
45012;DHT22;63444;48.148;11.542;2023-11-21T07:48:33;8.60;99.90
45012;DHT22;63444;48.148;11.542;2023-11-21T07:50:59;8.70;99.90
45012;DHT22;63444;48.148;11.542;2023-11-21T07:53:25;8.60;99.90
45012;DHT22;63444;48.148;11.542;2023-11-21T07:55:54;8.60;99.90
45012;DHT22;63444;48.148;11.542;2023-11-21T07:58:20;8.70;99.90
45012;DHT22;63444;48.148;11.542;2023-11-21T08:00:45;8.70;99.90
45012;DHT22;63444;48.148;11.542;2023-11-21T08:03:11;8.70;99.90
45012;DHT22;63444;48.148;11.542;2023-11-21T08:05:37;8.70;99.90
45012;DHT22;63444;48.148;11.542;2023-11-21T08:08:02;8.70;99.90
45012;DHT22;63444;48.148;11.542;2023-11-21T08:10:28;8.80;99.90
45012;DHT22;63444;48.148;11.542;2023-11-21T08:12:55;8.80;99.90
45012;DHT22;63444;48.148;11.542;2023-11-21T08:15:21;8.90;99.90
45012;DHT22;63444;48.148;11.542;2023-11-21T08:17:47;8.90;99.90
45012;DHT22;63444;48.148;11.542;2023-11-21T08:20:13;8.90;99.90
45012;DHT22;63444;48.148;11.542;2023-11-21T08:22:42;8.90;99.90
45012;DHT22;63444;48.148;11.542;2023-11-21T08:25:08;8.90;99.90
45012;DHT22;63444;48.148;11.542;2023-11-21T08:27:34;8.80;99.90
45012;DHT22;63444;48.148;11.542;2023-11-21T08:30:00;8.80;99.90
45012;DHT22;63444;48.148;11.542;2023-11-21T08:32:26;8.90;99.90
45012;DHT22;63444;48.148;11.542;2023-11-21T08:34:52;8.90;99.90
45012;DHT22;63444;48.148;11.542;2023-11-21T08:37:18;8.90;99.90
45012;DHT22;63444;48.148;11.542;2023-11-21T08:39:44;8.90;99.90
45012;DHT22;63444;48.148;11.542;2023-11-21T08:42:10;9.00;99.90
45012;DHT22;63444;48.148;11.542;2023-11-21T08:44:35;9.00;99.90
45012;DHT22;63444;48.148;11.542;2023-11-21T08:47:01;9.00;99.90
45012;DHT22;63444;48.148;11.542;2023-11-21T08:49:27;9.00;99.90
45012;DHT22;63444;48.148;11.542;2023-11-21T08:51:54;9.10;99.90
45012;DHT22;63444;48.148;11.542;2023-11-21T08:54:25;9.10;99.90
45012;DHT22;63444;48.148;11.542;2023-11-21T08:56:52;9.10;99.90
45012;DHT22;63444;48.148;11.542;2023-11-21T08:59:18;9.20;99.90
45012;DHT22;63444;48.148;11.542;2023-11-21T09:01:45;9.20;99.90
45012;DHT22;63444;48.148;11.542;2023-11-21T09:04:12;9.30;99.90
45012;DHT22;63444;48.148;11.542;2023-11-21T09:06:38;9.20;99.90
45012;DHT22;63444;48.148;11.542;2023-11-21T09:09:03;9.30;99.90
45012;DHT22;63444;48.148;11.542;2023-11-21T09:11:34;9.30;99.90
45012;DHT22;63444;48.148;11.542;2023-11-21T09:14:01;9.30;99.90
45012;DHT22;63444;48.148;11.542;2023-11-21T09:16:26;9.20;99.90
45012;DHT22;63444;48.148;11.542;2023-11-21T09:18:52;9.30;99.90
45012;DHT22;63444;48.148;11.542;2023-11-21T09:21:17;9.30;99.90
45012;DHT22;63444;48.148;11.542;2023-11-21T09:23:46;9.40;99.90
45012;DHT22;63444;48.148;11.542;2023-11-21T09:26:12;9.40;99.90
45012;DHT22;63444;48.148;11.542;2023-11-21T09:28:37;9.50;99.90
45012;DHT22;63444;48.148;11.542;2023-11-21T09:31:04;9.50;99.90
45012;DHT22;63444;48.148;11.542;2023-11-21T09:33:30;9.60;99.90
45012;DHT22;63444;48.148;11.542;2023-11-21T09:35:57;9.50;99.90
45012;DHT22;63444;48.148;11.542;2023-11-21T09:38:23;9.60;99.90
45012;DHT22;63444;48.148;11.542;2023-11-21T09:40:49;9.60;99.90
45012;DHT22;63444;48.148;11.542;2023-11-21T09:43:20;9.60;99.90
45012;DHT22;63444;48.148;11.542;2023-11-21T09:45:47;9.60;99.90
45012;DHT22;63444;48.148;11.542;2023-11-21T09:48:14;9.60;99.90
45012;DHT22;63444;48.148;11.542;2023-11-21T09:50:42;9.70;99.90
45012;DHT22;63444;48.148;11.542;2023-11-21T09:53:17;9.70;99.90
45012;DHT22;63444;48.148;11.542;2023-11-21T09:55:44;9.80;99.90
45012;DHT22;63444;48.148;11.542;2023-11-21T09:58:10;9.90;99.90
45012;DHT22;63444;48.148;11.542;2023-11-21T10:00:40;10.00;99.90
45012;DHT22;63444;48.148;11.542;2023-11-21T10:03:06;10.00;99.90
45012;DHT22;63444;48.148;11.542;2023-11-21T10:05:32;10.10;99.90
45012;DHT22;63444;48.148;11.542;2023-11-21T10:07:59;10.10;99.90
45012;DHT22;63444;48.148;11.542;2023-11-21T10:10:26;10.20;99.90
45012;DHT22;63444;48.148;11.542;2023-11-21T10:12:56;10.20;99.90
45012;DHT22;63444;48.148;11.542;2023-11-21T10:15:23;10.30;99.90
45012;DHT22;63444;48.148;11.542;2023-11-21T10:17:53;10.40;99.90
45012;DHT22;63444;48.148;11.542;2023-11-21T10:20:20;10.40;99.90
45012;DHT22;63444;48.148;11.542;2023-11-21T10:22:46;10.40;99.90
45012;DHT22;63444;48.148;11.542;2023-11-21T10:25:12;10.30;99.90
45012;DHT22;63444;48.148;11.542;2023-11-21T10:27:40;10.30;99.90
45012;DHT22;63444;48.148;11.542;2023-11-21T10:30:07;10.30;99.90
45012;DHT22;63444;48.148;11.542;2023-11-21T10:32:41;10.30;99.90
45012;DHT22;63444;48.148;11.542;2023-11-21T10:35:07;10.30;99.90
45012;DHT22;63444;48.148;11.542;2023-11-21T10:37:39;10.30;99.90
45012;DHT22;63444;48.148;11.542;2023-11-21T10:40:07;10.30;99.90
45012;DHT22;63444;48.148;11.542;2023-11-21T10:42:33;10.20;99.90
45012;DHT22;63444;48.148;11.542;2023-11-21T10:44:59;10.20;99.90
45012;DHT22;63444;48.148;11.542;2023-11-21T10:47:26;10.30;99.90
45012;DHT22;63444;48.148;11.542;2023-11-21T10:49:52;10.30;99.90
45012;DHT22;63444;48.148;11.542;2023-11-21T10:52:19;10.30;99.90
45012;DHT22;63444;48.148;11.542;2023-11-21T10:54:46;10.30;99.90
45012;DHT22;63444;48.148;11.542;2023-11-21T10:57:15;10.40;99.90
45012;DHT22;63444;48.148;11.542;2023-11-21T10:59:47;10.40;99.90
45012;DHT22;63444;48.148;11.542;2023-11-21T11:02:24;10.40;99.90
45012;DHT22;63444;48.148;11.542;2023-11-21T11:04:54;10.30;99.90
45012;DHT22;63444;48.148;11.542;2023-11-21T11:07:26;10.30;99.90
45012;DHT22;63444;48.148;11.542;2023-11-21T11:09:54;10.40;99.90
45012;DHT22;63444;48.148;11.542;2023-11-21T11:12:20;10.30;99.90
45012;DHT22;63444;48.148;11.542;2023-11-21T11:14:46;10.30;99.90
45012;DHT22;63444;48.148;11.542;2023-11-21T11:17:13;10.30;99.90
45012;DHT22;63444;48.148;11.542;2023-11-21T11:19:39;10.40;99.90
45012;DHT22;63444;48.148;11.542;2023-11-21T11:22:35;10.40;99.90
45012;DHT22;63444;48.148;11.542;2023-11-21T11:28:29;10.40;99.90
45012;DHT22;63444;48.148;11.542;2023-11-21T11:33:50;10.50;99.90
45012;DHT22;63444;48.148;11.542;2023-11-21T11:36:39;10.50;99.90
45012;DHT22;63444;48.148;11.542;2023-11-21T11:39:28;10.50;99.90
45012;DHT22;63444;48.148;11.542;2023-11-21T11:41:56;10.60;99.90
45012;DHT22;63444;48.148;11.542;2023-11-21T11:44:59;10.60;99.90
45012;DHT22;63444;48.148;11.542;2023-11-21T11:50:11;10.70;99.90
45012;DHT22;63444;48.148;11.542;2023-11-21T11:52:47;10.70;99.90
45012;DHT22;63444;48.148;11.542;2023-11-21T11:55:16;10.60;99.90
45012;DHT22;63444;48.148;11.542;2023-11-21T11:57:50;10.60;99.90
45012;DHT22;63444;48.148;11.542;2023-11-21T12:00:19;10.60;99.90
45012;DHT22;63444;48.148;11.542;2023-11-21T12:03:01;10.60;99.90
45012;DHT22;63444;48.148;11.542;2023-11-21T12:05:33;10.60;99.90
45012;DHT22;63444;48.148;11.542;2023-11-21T12:08:07;10.60;99.90
45012;DHT22;63444;48.148;11.542;2023-11-21T12:10:37;10.60;99.90
45012;DHT22;63444;48.148;11.542;2023-11-21T12:13:11;10.50;99.90
45012;DHT22;63444;48.148;11.542;2023-11-21T12:15:40;10.60;99.90
45012;DHT22;63444;48.148;11.542;2023-11-21T12:18:07;10.60;99.90
45012;DHT22;63444;48.148;11.542;2023-11-21T12:20:33;10.50;99.90
45012;DHT22;63444;48.148;11.542;2023-11-21T12:23:05;10.50;99.90
45012;DHT22;63444;48.148;11.542;2023-11-21T12:25:31;10.60;99.90
45012;DHT22;63444;48.148;11.542;2023-11-21T12:27:59;10.60;99.90
45012;DHT22;63444;48.148;11.542;2023-11-21T12:30:29;10.60;99.90
45012;DHT22;63444;48.148;11.542;2023-11-21T12:32:59;10.70;99.90
45012;DHT22;63444;48.148;11.542;2023-11-21T12:35:27;10.80;99.90
45012;DHT22;63444;48.148;11.542;2023-11-21T12:37:55;10.80;99.90
45012;DHT22;63444;48.148;11.542;2023-11-21T12:40:23;10.80;99.90
45012;DHT22;63444;48.148;11.542;2023-11-21T12:42:50;10.80;99.90
45012;DHT22;63444;48.148;11.542;2023-11-21T12:50:11;10.80;99.90
45012;DHT22;63444;48.148;11.542;2023-11-21T12:52:45;10.70;99.90
45012;DHT22;63444;48.148;11.542;2023-11-21T12:55:19;10.60;99.90
45012;DHT22;63444;48.148;11.542;2023-11-21T12:57:48;10.60;99.90
45012;DHT22;63444;48.148;11.542;2023-11-21T13:00:17;10.60;99.90
45012;DHT22;63444;48.148;11.542;2023-11-21T13:02:56;10.50;99.90
45012;DHT22;63444;48.148;11.542;2023-11-21T13:05:25;10.50;99.90
45012;DHT22;63444;48.148;11.542;2023-11-21T13:07:51;10.40;99.90
45012;DHT22;63444;48.148;11.542;2023-11-21T13:10:21;10.40;99.90
45012;DHT22;63444;48.148;11.542;2023-11-21T13:12:51;10.40;99.90
45012;DHT22;63444;48.148;11.542;2023-11-21T13:15:17;10.40;99.90
45012;DHT22;63444;48.148;11.542;2023-11-21T13:17:43;10.40;99.90
45012;DHT22;63444;48.148;11.542;2023-11-21T13:20:11;10.30;99.90
45012;DHT22;63444;48.148;11.542;2023-11-21T13:22:52;10.40;99.90
45012;DHT22;63444;48.148;11.542;2023-11-21T13:25:30;10.40;99.90
45012;DHT22;63444;48.148;11.542;2023-11-21T13:28:00;10.40;99.90
45012;DHT22;63444;48.148;11.542;2023-11-21T13:30:29;10.40;99.90
45012;DHT22;63444;48.148;11.542;2023-11-21T13:33:02;10.40;99.90
45012;DHT22;63444;48.148;11.542;2023-11-21T13:35:33;10.40;99.90
45012;DHT22;63444;48.148;11.542;2023-11-21T13:38:07;10.40;99.90
45012;DHT22;63444;48.148;11.542;2023-11-21T13:40:33;10.40;99.90
45012;DHT22;63444;48.148;11.542;2023-11-21T13:43:05;10.40;99.90
45012;DHT22;63444;48.148;11.542;2023-11-21T13:45:35;10.40;99.90
45012;DHT22;63444;48.148;11.542;2023-11-21T13:48:02;10.40;99.90
45012;DHT22;63444;48.148;11.542;2023-11-21T13:50:27;10.40;99.90
45012;DHT22;63444;48.148;11.542;2023-11-21T13:53:02;10.40;99.90
45012;DHT22;63444;48.148;11.542;2023-11-21T13:55:36;10.40;99.90
45012;DHT22;63444;48.148;11.542;2023-11-21T13:58:02;10.40;99.90
45012;DHT22;63444;48.148;11.542;2023-11-21T14:00:29;10.30;99.90
45012;DHT22;63444;48.148;11.542;2023-11-21T14:03:20;10.20;99.90
45012;DHT22;63444;48.148;11.542;2023-11-21T14:05:50;10.10;99.90
45012;DHT22;63444;48.148;11.542;2023-11-21T14:08:22;10.00;99.90
45012;DHT22;63444;48.148;11.542;2023-11-21T14:10:57;9.90;99.90
45012;DHT22;63444;48.148;11.542;2023-11-21T14:13:26;9.80;99.90
45012;DHT22;63444;48.148;11.542;2023-11-21T14:15:53;9.70;99.90
45012;DHT22;63444;48.148;11.542;2023-11-21T14:18:27;9.60;99.90
45012;DHT22;63444;48.148;11.542;2023-11-21T14:21:01;9.60;99.90
45012;DHT22;63444;48.148;11.542;2023-11-21T14:23:27;9.50;99.90
45012;DHT22;63444;48.148;11.542;2023-11-21T14:25:53;9.60;99.90
45012;DHT22;63444;48.148;11.542;2023-11-21T14:28:19;9.60;99.90
45012;DHT22;63444;48.148;11.542;2023-11-21T14:30:46;9.70;99.90
45012;DHT22;63444;48.148;11.542;2023-11-21T14:33:12;9.60;99.90
45012;DHT22;63444;48.148;11.542;2023-11-21T14:35:38;9.60;99.90
45012;DHT22;63444;48.148;11.542;2023-11-21T14:38:03;9.60;99.90
45012;DHT22;63444;48.148;11.542;2023-11-21T14:40:31;9.60;99.90
45012;DHT22;63444;48.148;11.542;2023-11-21T14:43:02;9.60;99.90
45012;DHT22;63444;48.148;11.542;2023-11-21T14:45:31;9.60;99.90
45012;DHT22;63444;48.148;11.542;2023-11-21T14:47:57;9.50;99.90
45012;DHT22;63444;48.148;11.542;2023-11-21T14:50:34;9.60;99.90
45012;DHT22;63444;48.148;11.542;2023-11-21T14:53:35;9.60;99.90
45012;DHT22;63444;48.148;11.542;2023-11-21T14:56:23;9.50;99.90
45012;DHT22;63444;48.148;11.542;2023-11-21T14:59:00;9.50;99.90
45012;DHT22;63444;48.148;11.542;2023-11-21T15:01:32;9.50;99.90
45012;DHT22;63444;48.148;11.542;2023-11-21T15:04:17;9.50;99.90
45012;DHT22;63444;48.148;11.542;2023-11-21T15:07:05;9.50;99.90
45012;DHT22;63444;48.148;11.542;2023-11-21T15:09:31;9.50;99.90
45012;DHT22;63444;48.148;11.542;2023-11-21T15:11:57;9.50;99.90
45012;DHT22;63444;48.148;11.542;2023-11-21T15:14:29;9.50;99.90
45012;DHT22;63444;48.148;11.542;2023-11-21T15:16:58;9.50;99.90
45012;DHT22;63444;48.148;11.542;2023-11-21T15:19:26;9.50;99.90
45012;DHT22;63444;48.148;11.542;2023-11-21T15:21:53;9.50;99.90
45012;DHT22;63444;48.148;11.542;2023-11-21T15:24:19;9.50;99.90
45012;DHT22;63444;48.148;11.542;2023-11-21T15:26:45;9.40;99.90
45012;DHT22;63444;48.148;11.542;2023-11-21T15:29:10;9.40;99.90
45012;DHT22;63444;48.148;11.542;2023-11-21T15:31:36;9.50;99.90
45012;DHT22;63444;48.148;11.542;2023-11-21T15:34:03;9.50;99.90
45012;DHT22;63444;48.148;11.542;2023-11-21T15:36:30;9.50;99.90
45012;DHT22;63444;48.148;11.542;2023-11-21T15:38:56;9.50;99.90
45012;DHT22;63444;48.148;11.542;2023-11-21T15:41:21;9.50;99.90
45012;DHT22;63444;48.148;11.542;2023-11-21T15:43:47;9.50;99.90
45012;DHT22;63444;48.148;11.542;2023-11-21T15:46:15;9.50;99.90